Elmwood, Massachusetts
Current Conditions -  °F | °C
As of 10:52 PM on Thursday 18 Dec 2014 (Local Time) from KTAN Reporting Station
Overcast Overcast  
Wind Chill: 30°   Ceiling: 3800
Heat Index: 36°   Visibility: 10mi
Dew Point: 27°   Wind: 7mph
Humidity: 70%   Direction: 260°W
Pressure: 29.87"   Gusts: NA
Location:  42.01°N, 70.96°W
Report Text: KTAN 190352Z AUTO 26006KT 10SM OVC038 02/M03 A2987 RMK AO2 SLP114 T00221028
Loading
Personal Weather Stations






























Interactive Weather Map New forecast layout! Learn more

10-Day Weather Forecast

Advertisements
Track Severe Weather on mobile